createdAt,value
2022-08-09T00:00:44.639Z,44.23
2022-08-09T00:04:05.506Z,46.54
2022-08-09T00:06:36.291Z,46.00
2022-08-09T00:09:20.932Z,44.07
2022-08-09T00:12:06.136Z,44.54
2022-08-09T00:14:51.005Z,44.29
2022-08-09T00:18:05.273Z,41.73
2022-08-09T00:20:49.955Z,44.84
2022-08-09T00:23:57.207Z,43.55
2022-08-09T00:26:40.239Z,45.41
2022-08-09T00:29:39.947Z,44.43
2022-08-09T00:32:30.385Z,45.33
2022-08-09T00:35:15.064Z,45.66
2022-08-09T00:38:00.374Z,46.96
2022-08-09T00:40:52.822Z,47.44
2022-08-09T00:44:15.131Z,46.30
2022-08-09T00:46:57.476Z,47.67
2022-08-09T00:49:54.540Z,46.72
2022-08-09T00:52:41.517Z,46.56
2022-08-09T00:56:03.069Z,44.97
2022-08-09T00:58:31.098Z,46.14
2022-08-09T01:01:16.892Z,46.86
2022-08-09T01:04:01.458Z,47.08
2022-08-09T01:06:54.512Z,49.06
2022-08-09T01:09:40.698Z,48.16
2022-08-09T01:12:25.654Z,48.24
2022-08-09T01:15:16.819Z,47.56
2022-08-09T01:18:02.477Z,46.19
2022-08-09T01:20:47.418Z,46.05
2022-08-09T01:24:03.432Z,46.38
2022-08-09T01:26:36.962Z,48.51
2022-08-09T01:29:21.802Z,47.38
2022-08-09T01:32:32.281Z,46.89
2022-08-09T01:35:37.914Z,47.48
2022-08-09T01:38:23.471Z,47.62
2022-08-09T01:41:09.436Z,47.91
2022-08-09T01:43:54.301Z,48.57
2022-08-09T01:46:39.535Z,49.51
2022-08-09T01:49:24.498Z,49.15
2022-08-09T01:52:09.646Z,49.78
2022-08-09T01:54:54.480Z,49.71
2022-08-09T01:57:40.087Z,50.52
2022-08-09T02:00:35.868Z,50.70
2022-08-09T02:03:21.298Z,50.72
2022-08-09T02:06:07.219Z,49.70
2022-08-09T02:08:58.889Z,48.13
2022-08-09T02:11:44.673Z,47.08
2022-08-09T02:14:30.569Z,47.49
2022-08-09T02:17:59.115Z,47.08
2022-08-09T02:20:26.458Z,44.93
2022-08-09T02:23:17.276Z,47.62
2022-08-09T02:26:02.459Z,46.15
2022-08-09T02:28:47.263Z,46.33
2022-08-09T02:31:34.273Z,48.29
2022-08-09T02:34:38.600Z,47.03
2022-08-09T02:37:31.843Z,45.94
2022-08-09T02:40:24.775Z,46.99
2022-08-09T02:43:12.191Z,48.44
2022-08-09T02:45:58.132Z,46.57
2022-08-09T02:48:45.993Z,47.34
2022-08-09T02:51:33.038Z,47.42
2022-08-09T02:54:25.316Z,47.86
2022-08-09T02:57:14.191Z,47.03
2022-08-09T03:00:21.564Z,47.21
2022-08-09T03:03:11.302Z,48.02
2022-08-09T03:05:56.583Z,47.27
2022-08-09T03:08:41.423Z,47.09
2022-08-09T03:12:06.597Z,45.05
2022-08-09T03:14:31.663Z,47.86
2022-08-09T03:17:26.792Z,46.75
2022-08-09T03:20:12.718Z,48.52
2022-08-09T03:22:58.220Z,46.60
2022-08-09T03:25:58.306Z,45.90
2022-08-09T03:28:48.053Z,45.10
2022-08-09T03:31:42.447Z,46.80
2022-08-09T03:34:44.539Z,46.71
2022-08-09T03:37:57.134Z,46.24
2022-08-09T03:40:38.484Z,46.41
2022-08-09T03:43:31.824Z,45.91
2022-08-09T03:46:20.641Z,45.09
2022-08-09T03:49:12.394Z,46.36
2022-08-09T03:52:03.651Z,45.72
2022-08-09T03:54:49.327Z,46.90
2022-08-09T03:57:44.723Z,47.13
2022-08-09T04:00:41.110Z,49.07
2022-08-09T04:03:46.155Z,48.78
2022-08-09T04:06:31.719Z,48.84
2022-08-09T04:09:41.780Z,49.19
2022-08-09T04:12:30.467Z,48.97
2022-08-09T04:15:40.591Z,50.72
2022-08-09T04:18:22.261Z,50.54
2022-08-09T04:21:09.899Z,46.74
2022-08-09T04:23:57.543Z,47.32
2022-08-09T04:26:43.152Z,48.08
2022-08-09T04:29:30.056Z,48.97
2022-08-09T04:32:15.060Z,49.28
2022-08-09T04:35:01.322Z,50.72
2022-08-09T04:37:46.843Z,49.56
2022-08-09T04:40:36.544Z,50.69
2022-08-09T04:43:21.919Z,49.93
2022-08-09T04:46:10.253Z,48.48
2022-08-09T04:49:15.109Z,46.30
2022-08-09T04:52:00.303Z,46.33
2022-08-09T04:54:45.585Z,47.61
2022-08-09T04:57:58.482Z,48.21
2022-08-09T05:00:35.492Z,46.68
2022-08-09T05:03:40.362Z,47.18
2022-08-09T05:06:27.824Z,46.41
2022-08-09T05:09:13.869Z,46.10
2022-08-09T05:12:00.252Z,45.33
2022-08-09T05:14:44.926Z,47.02
2022-08-09T05:18:39.731Z,46.34
2022-08-09T05:20:35.219Z,46.59
2022-08-09T05:23:53.965Z,46.80
2022-08-09T05:26:35.280Z,47.64
2022-08-09T05:29:31.559Z,47.47
2022-08-09T05:32:20.625Z,48.05
2022-08-09T05:35:08.277Z,48.13
2022-08-09T05:37:53.966Z,48.72
2022-08-09T05:40:38.917Z,48.35
2022-08-09T05:43:23.591Z,48.22
2022-08-09T05:46:08.408Z,39.90
2022-08-09T05:48:59.035Z,32.99
2022-08-09T05:51:46.435Z,30.09
2022-08-09T05:54:31.837Z,27.40
2022-08-09T05:57:17.584Z,25.35
2022-08-09T06:00:04.146Z,22.85
2022-08-09T06:02:54.549Z,22.08
2022-08-09T06:05:54.537Z,20.21
2022-08-09T06:08:52.688Z,19.51
2022-08-09T06:11:41.215Z,18.64
2022-08-09T06:14:41.918Z,18.48
2022-08-09T06:17:26.540Z,18.24
2022-08-09T06:20:23.892Z,17.20
2022-08-09T06:23:11.976Z,17.91
2022-08-09T06:26:00.710Z,17.92
2022-08-09T06:28:46.629Z,17.65
2022-08-09T06:31:40.156Z,17.30
2022-08-09T06:34:36.905Z,16.89
2022-08-09T06:37:21.513Z,17.45
2022-08-09T06:40:21.668Z,17.32
2022-08-09T06:43:10.724Z,16.80
2022-08-09T06:46:06.311Z,16.48
2022-08-09T06:48:59.697Z,16.02
2022-08-09T06:51:45.887Z,16.07
2022-08-09T06:54:30.803Z,16.64
2022-08-09T06:57:15.638Z,16.25
2022-08-09T07:00:48.870Z,17.14
2022-08-09T07:03:05.907Z,16.36
2022-08-09T07:05:53.684Z,15.92
2022-08-09T07:08:49.732Z,17.15
2022-08-09T07:11:52.014Z,17.19
2022-08-09T07:14:38.129Z,16.89
2022-08-09T07:17:23.354Z,17.46
2022-08-09T07:20:08.201Z,16.98
2022-08-09T07:22:53.525Z,17.08
2022-08-09T07:25:42.828Z,16.29
2022-08-09T07:28:28.649Z,16.51
2022-08-09T07:31:13.236Z,16.42
2022-08-09T07:33:59.963Z,17.52
2022-08-09T07:36:47.208Z,18.04
2022-08-09T07:39:41.270Z,19.85
2022-08-09T07:42:32.715Z,23.62
2022-08-09T07:45:23.637Z,26.27
2022-08-09T07:48:29.464Z,27.89
2022-08-09T07:52:05.749Z,29.98
2022-08-09T07:54:28.132Z,30.58
2022-08-09T07:57:15.011Z,30.91
2022-08-09T08:00:03.682Z,30.78
2022-08-09T08:02:49.332Z,32.83
2022-08-09T08:05:39.264Z,32.17
2022-08-09T08:09:02.633Z,34.25
2022-08-09T08:12:09.829Z,35.91
2022-08-09T08:14:51.779Z,35.26
2022-08-09T08:17:55.110Z,33.87
2022-08-09T08:20:43.007Z,35.15
2022-08-09T08:23:28.005Z,34.85
2022-08-09T08:26:13.200Z,35.83
2022-08-09T08:28:59.875Z,35.30
2022-08-09T08:32:02.301Z,36.62
2022-08-09T08:34:48.943Z,36.10
2022-08-09T08:37:41.483Z,36.48
2022-08-09T08:40:42.035Z,36.54
2022-08-09T08:43:27.169Z,36.25
2022-08-09T08:46:32.080Z,36.12
2022-08-09T08:49:19.165Z,36.21
2022-08-09T08:52:04.334Z,36.21
2022-08-09T08:54:55.757Z,36.43
2022-08-09T08:57:40.419Z,35.92
2022-08-09T09:00:29.829Z,36.90
2022-08-09T09:03:22.640Z,36.63
2022-08-09T09:06:09.951Z,36.39
2022-08-09T09:08:59.574Z,37.24
2022-08-09T09:11:44.963Z,35.63
2022-08-09T09:14:34.716Z,36.43
2022-08-09T09:17:21.004Z,36.30
2022-08-09T09:20:06.205Z,35.79
2022-08-09T09:22:51.016Z,36.41
2022-08-09T09:26:04.878Z,35.75
2022-08-09T09:29:04.543Z,36.22
2022-08-09T09:32:03.448Z,35.59
2022-08-09T09:34:50.272Z,34.31
2022-08-09T09:37:35.003Z,35.13
2022-08-09T09:40:21.334Z,35.87
2022-08-09T09:43:06.752Z,36.03
2022-08-09T09:46:39.477Z,35.28
2022-08-09T09:48:56.514Z,35.62
2022-08-09T09:51:41.844Z,35.71
2022-08-09T09:54:26.537Z,35.25
2022-08-09T09:58:02.922Z,35.91
2022-08-09T10:00:19.858Z,35.39
2022-08-09T10:03:09.205Z,35.81
2022-08-09T10:06:04.090Z,36.12
2022-08-09T10:08:55.083Z,36.05
2022-08-09T10:12:00.132Z,35.48
2022-08-09T10:14:48.396Z,35.59
2022-08-09T10:17:50.470Z,35.04
2022-08-09T10:20:44.800Z,35.52
2022-08-09T10:23:30.606Z,35.32
2022-08-09T10:26:16.817Z,35.74
2022-08-09T10:29:21.243Z,34.69
2022-08-09T10:32:38.178Z,35.16
2022-08-09T10:35:14.588Z,35.37
2022-08-09T10:37:59.385Z,34.75
2022-08-09T10:40:46.063Z,37.41
2022-08-09T10:43:46.763Z,35.64
2022-08-09T10:46:43.564Z,35.30
2022-08-09T10:49:46.909Z,34.20
2022-08-09T10:52:36.535Z,34.26
2022-08-09T10:55:22.816Z,35.05
2022-08-09T10:58:08.699Z,34.11
2022-08-09T11:03:02.961Z,33.72
2022-08-09T11:04:03.629Z,33.75
2022-08-09T11:06:51.100Z,34.35
2022-08-09T11:09:41.085Z,34.12
2022-08-09T11:12:29.777Z,34.20
2022-08-09T11:15:18.897Z,33.82
2022-08-09T11:18:04.200Z,34.03
2022-08-09T11:20:49.740Z,34.94
2022-08-09T11:23:35.004Z,34.53
2022-08-09T11:26:20.816Z,34.77
2022-08-09T11:29:06.186Z,34.58
2022-08-09T11:31:55.031Z,35.14
2022-08-09T11:34:40.297Z,34.73
2022-08-09T11:37:25.138Z,34.04
2022-08-09T11:40:12.840Z,35.03
2022-08-09T11:43:02.505Z,34.38
2022-08-09T11:45:47.395Z,35.17
2022-08-09T11:48:33.588Z,35.08
2022-08-09T11:52:56.898Z,35.96
2022-08-09T11:54:29.701Z,35.69
2022-08-09T11:57:28.243Z,35.61
2022-08-09T12:00:27.409Z,36.62
2022-08-09T12:03:50.470Z,36.08
2022-08-09T12:06:18.158Z,36.45
2022-08-09T12:09:19.484Z,36.29
2022-08-09T12:12:12.203Z,35.06
2022-08-09T12:15:08.479Z,37.04
2022-08-09T12:17:54.032Z,36.70
2022-08-09T12:20:41.881Z,35.56
2022-08-09T12:23:47.435Z,35.56
2022-08-09T12:26:31.565Z,36.01
2022-08-09T12:29:32.685Z,34.67
2022-08-09T12:32:21.766Z,35.34
2022-08-09T12:35:12.574Z,34.18
2022-08-09T12:38:01.750Z,33.87
2022-08-09T12:40:46.553Z,34.61
2022-08-09T12:44:05.313Z,34.05
2022-08-09T12:46:41.871Z,33.74
2022-08-09T12:49:28.037Z,34.26
2022-08-09T12:52:14.962Z,34.06
2022-08-09T12:56:10.787Z,33.93
2022-08-09T12:58:04.571Z,33.25
2022-08-09T13:00:56.508Z,32.92
2022-08-09T13:03:57.089Z,33.40
2022-08-09T13:06:44.350Z,32.80
2022-08-09T13:09:30.711Z,32.68
2022-08-09T13:12:15.835Z,32.95
2022-08-09T13:15:04.715Z,33.14
2022-08-09T13:18:05.749Z,31.18
2022-08-09T13:22:33.859Z,32.41
2022-08-09T13:24:42.310Z,31.22
2022-08-09T13:27:06.056Z,31.42
2022-08-09T13:30:03.795Z,32.83
2022-08-09T13:32:58.401Z,32.68
2022-08-09T13:36:24.806Z,33.79
2022-08-09T13:38:54.954Z,33.30
2022-08-09T13:41:58.265Z,33.75
2022-08-09T13:44:45.688Z,33.76
2022-08-09T13:47:44.014Z,33.79
2022-08-09T13:50:35.393Z,33.01
2022-08-09T13:53:20.630Z,33.62
2022-08-09T13:56:23.423Z,33.99
2022-08-09T13:59:10.677Z,32.96
2022-08-09T14:02:01.493Z,32.49
2022-08-09T14:04:49.623Z,32.20
2022-08-09T14:07:45.310Z,31.91
2022-08-09T14:10:46.120Z,32.02
2022-08-09T14:14:24.514Z,31.83
2022-08-09T14:16:40.341Z,31.23
2022-08-09T14:19:25.628Z,30.39
2022-08-09T14:22:15.262Z,30.12
2022-08-09T14:25:00.082Z,29.49
2022-08-09T14:27:57.150Z,29.27
2022-08-09T14:30:43.934Z,31.57
2022-08-09T14:33:31.762Z,26.88
2022-08-09T14:36:23.103Z,26.69
2022-08-09T14:39:10.412Z,23.14
2022-08-09T14:41:55.537Z,24.51
2022-08-09T14:44:48.863Z,23.69
2022-08-09T14:47:49.701Z,22.60
2022-08-09T14:50:42.678Z,23.35
2022-08-09T14:53:30.519Z,20.78
2022-08-09T14:56:16.748Z,20.67
2022-08-09T14:59:01.625Z,20.03
2022-08-09T15:01:46.348Z,21.29
2022-08-09T15:04:32.169Z,22.08
2022-08-09T15:07:17.998Z,22.80
2022-08-09T15:10:10.914Z,22.84
2022-08-09T15:12:59.076Z,23.18
2022-08-09T15:15:46.418Z,24.72
2022-08-09T15:18:31.149Z,24.00
2022-08-09T15:21:57.801Z,24.01
2022-08-09T15:24:26.490Z,23.81
2022-08-09T15:27:12.727Z,24.82
2022-08-09T15:30:56.076Z,24.61
2022-08-09T15:33:07.505Z,23.66
2022-08-09T15:36:01.632Z,23.95
2022-08-09T15:38:47.326Z,24.13
2022-08-09T15:41:32.682Z,24.98
2022-08-09T15:44:19.660Z,26.36
2022-08-09T15:47:13.956Z,26.40
2022-08-09T15:50:03.500Z,27.33
2022-08-09T15:52:55.087Z,27.68
2022-08-09T15:56:04.744Z,26.59
2022-08-09T15:58:56.524Z,28.35
2022-08-09T16:01:41.757Z,28.18
2022-08-09T16:04:27.939Z,28.29
2022-08-09T16:07:13.557Z,28.26
2022-08-09T16:10:04.488Z,28.63
2022-08-09T16:12:50.718Z,29.01
2022-08-09T16:16:11.421Z,28.95
2022-08-09T16:18:44.793Z,28.25
2022-08-09T16:21:31.593Z,30.16
2022-08-09T16:24:33.120Z,30.12
2022-08-09T16:27:18.975Z,29.47
2022-08-09T16:30:06.298Z,29.98
2022-08-09T16:32:54.315Z,29.59
2022-08-09T16:35:57.442Z,27.79
2022-08-09T16:38:44.425Z,27.90
2022-08-09T16:42:02.857Z,27.93
2022-08-09T16:44:41.714Z,28.01
2022-08-09T16:48:43.280Z,29.14
2022-08-09T16:50:34.117Z,28.72
2022-08-09T16:53:19.861Z,30.96
2022-08-09T16:56:10.175Z,30.52
2022-08-09T16:58:55.907Z,28.32
2022-08-09T17:01:45.578Z,28.05
2022-08-09T17:04:36.156Z,28.70
2022-08-09T17:08:46.218Z,31.03
2022-08-09T17:10:26.196Z,31.41
2022-08-09T17:13:10.971Z,31.12
2022-08-09T17:15:59.840Z,30.63
2022-08-09T17:18:47.320Z,29.08
2022-08-09T17:21:32.996Z,30.91
2022-08-09T17:24:26.967Z,30.77
2022-08-09T17:27:15.774Z,32.08
2022-08-09T17:30:05.044Z,29.93
2022-08-09T17:32:51.736Z,30.37
2022-08-09T17:35:41.346Z,30.68
2022-08-09T17:38:32.041Z,30.73
2022-08-09T17:41:21.994Z,31.41
2022-08-09T17:44:42.472Z,32.03
2022-08-09T17:47:28.531Z,31.60
2022-08-09T17:50:17.328Z,32.02
2022-08-09T17:53:22.271Z,31.14
2022-08-09T17:56:09.379Z,31.10
2022-08-09T17:58:54.407Z,31.42
2022-08-09T18:01:58.181Z,31.49
2022-08-09T18:04:44.234Z,33.05
2022-08-09T18:07:30.453Z,33.35
2022-08-09T18:10:19.206Z,33.87
2022-08-09T18:13:39.088Z,33.90
2022-08-09T18:16:09.391Z,33.74
2022-08-09T18:18:54.341Z,33.25
2022-08-09T18:21:41.242Z,34.14
2022-08-09T18:24:27.539Z,32.57
2022-08-09T18:27:13.670Z,34.65
2022-08-09T18:30:40.268Z,34.36
2022-08-09T18:33:13.453Z,36.02
2022-08-09T18:36:00.781Z,35.14
2022-08-09T18:38:45.800Z,36.02
2022-08-09T18:41:34.255Z,36.34
2022-08-09T18:44:19.983Z,36.30
2022-08-09T18:47:15.926Z,34.60
2022-08-09T18:50:03.411Z,37.81
2022-08-09T18:52:51.196Z,35.15
2022-08-09T18:55:56.123Z,35.71
2022-08-09T18:58:40.845Z,36.05
2022-08-09T19:01:26.167Z,37.96
2022-08-09T19:04:11.310Z,38.00
2022-08-09T19:06:56.096Z,37.13
2022-08-09T19:10:15.778Z,37.73
2022-08-09T19:12:50.591Z,37.89
2022-08-09T19:15:45.040Z,37.85
2022-08-09T19:18:37.623Z,38.21
2022-08-09T19:21:51.872Z,37.42
2022-08-09T19:24:33.117Z,38.42
2022-08-09T19:27:25.896Z,38.62
2022-08-09T19:30:22.199Z,38.27
2022-08-09T19:33:19.710Z,38.62
2022-08-09T19:36:11.684Z,37.37
2022-08-09T19:38:56.986Z,36.96
2022-08-09T19:41:42.284Z,37.16
2022-08-09T19:44:27.704Z,38.07
2022-08-09T19:47:12.398Z,38.74
2022-08-09T19:50:08.233Z,39.00
2022-08-09T19:53:04.413Z,38.90
2022-08-09T19:56:01.888Z,38.83
2022-08-09T19:59:06.197Z,38.88
2022-08-09T20:02:07.516Z,38.76
2022-08-09T20:04:58.319Z,38.56
2022-08-09T20:07:56.852Z,39.01
2022-08-09T20:10:45.393Z,40.53
2022-08-09T20:13:30.642Z,38.91
2022-08-09T20:16:35.697Z,38.75
2022-08-09T20:19:47.735Z,39.30
2022-08-09T20:22:32.118Z,40.23
2022-08-09T20:25:22.846Z,38.98
2022-08-09T20:28:07.950Z,39.57
2022-08-09T20:30:57.756Z,39.27
2022-08-09T20:33:44.682Z,39.61
2022-08-09T20:36:29.813Z,38.76
2022-08-09T20:39:28.365Z,41.74
2022-08-09T20:42:21.499Z,41.67
2022-08-09T20:48:20.940Z,38.74
2022-08-09T20:51:06.629Z,39.44
2022-08-09T20:53:51.420Z,38.76
2022-08-09T20:56:36.301Z,39.03
2022-08-09T20:59:50.297Z,39.79
2022-08-09T21:02:26.526Z,42.88
2022-08-09T21:05:56.504Z,42.02
2022-08-09T21:08:17.019Z,41.39
2022-08-09T21:11:07.143Z,39.67
2022-08-09T21:14:10.040Z,38.74
2022-08-09T21:16:54.799Z,42.42
2022-08-09T21:20:17.249Z,40.03
2022-08-09T21:22:46.788Z,39.18
2022-08-09T21:25:37.997Z,43.19
2022-08-09T21:28:34.453Z,41.05
2022-08-09T21:31:20.999Z,40.07
2022-08-09T21:34:06.271Z,40.19
2022-08-09T21:36:55.664Z,41.73
2022-08-09T21:39:42.035Z,40.17
2022-08-09T21:42:28.390Z,39.19
2022-08-09T21:45:15.840Z,40.08
2022-08-09T21:48:03.242Z,43.56
2022-08-09T21:50:51.344Z,43.42
2022-08-09T21:53:40.980Z,42.48
2022-08-09T21:56:43.613Z,41.17
2022-08-09T21:59:42.936Z,44.26
2022-08-09T22:02:36.170Z,43.50
2022-08-09T22:05:22.473Z,43.09
2022-08-09T22:08:13.781Z,43.00
2022-08-09T22:11:49.947Z,43.47
2022-08-09T22:14:04.089Z,43.01
2022-08-09T22:16:55.772Z,42.82
2022-08-09T22:19:58.379Z,41.94
2022-08-09T22:22:44.701Z,42.62
2022-08-09T22:26:06.208Z,41.12
2022-08-09T22:28:47.156Z,42.77
2022-08-09T22:31:50.215Z,42.56
2022-08-09T22:34:42.095Z,42.80
2022-08-09T22:37:26.913Z,42.76
2022-08-09T22:40:19.886Z,40.36
2022-08-09T22:43:16.091Z,39.53
2022-08-09T22:48:10.522Z,39.87
2022-08-09T22:49:14.998Z,42.94
2022-08-09T22:51:59.691Z,41.29
2022-08-09T22:54:46.855Z,44.86
2022-08-09T22:57:35.596Z,44.09
2022-08-09T23:00:21.481Z,42.33
2022-08-09T23:03:14.329Z,42.32
2022-08-09T23:06:30.138Z,42.15
2022-08-09T23:09:20.789Z,44.41
2022-08-09T23:12:05.585Z,43.38
2022-08-09T23:14:54.012Z,41.16
2022-08-09T23:17:39.278Z,42.33
2022-08-09T23:20:24.113Z,42.14
2022-08-09T23:23:08.730Z,44.15
2022-08-09T23:25:53.613Z,44.02
2022-08-09T23:28:38.397Z,44.50
2022-08-09T23:31:22.881Z,44.36
2022-08-09T23:34:07.588Z,44.22
2022-08-09T23:36:52.277Z,42.40
2022-08-09T23:39:37.055Z,44.47
2022-08-09T23:42:22.309Z,43.12
2022-08-09T23:45:07.295Z,43.36
2022-08-09T23:47:53.933Z,44.04
2022-08-09T23:50:38.615Z,43.30
2022-08-09T23:53:23.371Z,41.41
2022-08-09T23:56:12.651Z,42.96
2022-08-09T23:58:57.752Z,42.66
